sensor_id;sensor_type;location;lat;lon;timestamp;pressure;altitude;pressure_sealevel;temperature;humidity
25638;BME280;13496;51.040;13.680;2022-09-28T00:04:10;98046.69;;;19.83;51.17
25638;BME280;13496;51.040;13.680;2022-09-28T00:09:13;98048.78;;;19.81;51.03
25638;BME280;13496;51.040;13.680;2022-09-28T00:14:15;98039.28;;;19.80;51.19
25638;BME280;13496;51.040;13.680;2022-09-28T00:19:17;98031.41;;;19.80;50.94
25638;BME280;13496;51.040;13.680;2022-09-28T00:24:19;98031.88;;;19.77;51.12
25638;BME280;13496;51.040;13.680;2022-09-28T00:34:29;98023.41;;;19.75;50.94
25638;BME280;13496;51.040;13.680;2022-09-28T00:39:32;98017.59;;;19.73;51.29
25638;BME280;13496;51.040;13.680;2022-09-28T00:44:39;98019.97;;;19.75;51.23
25638;BME280;13496;51.040;13.680;2022-09-28T00:50:02;98013.91;;;19.74;51.01
25638;BME280;13496;51.040;13.680;2022-09-28T00:55:09;98007.28;;;19.72;51.05
25638;BME280;13496;51.040;13.680;2022-09-28T01:00:13;98010.16;;;19.70;51.37
25638;BME280;13496;51.040;13.680;2022-09-28T01:05:15;98003.31;;;19.69;51.31
25638;BME280;13496;51.040;13.680;2022-09-28T01:10:20;97998.06;;;19.69;51.11
25638;BME280;13496;51.040;13.680;2022-09-28T01:15:25;97991.19;;;19.68;51.57
25638;BME280;13496;51.040;13.680;2022-09-28T01:20:41;97994.28;;;19.65;51.32
25638;BME280;13496;51.040;13.680;2022-09-28T01:31:30;97989.00;;;19.65;51.53
25638;BME280;13496;51.040;13.680;2022-09-28T01:36:38;97982.16;;;19.64;51.21
25638;BME280;13496;51.040;13.680;2022-09-28T01:41:44;97982.41;;;19.63;51.30
25638;BME280;13496;51.040;13.680;2022-09-28T01:46:49;97971.09;;;19.62;51.50
25638;BME280;13496;51.040;13.680;2022-09-28T01:52:12;97969.69;;;19.59;51.40
25638;BME280;13496;51.040;13.680;2022-09-28T02:02:25;97967.53;;;19.56;51.33
25638;BME280;13496;51.040;13.680;2022-09-28T02:07:37;97969.38;;;19.56;51.61
25638;BME280;13496;51.040;13.680;2022-09-28T02:12:48;97966.16;;;19.54;51.21
25638;BME280;13496;51.040;13.680;2022-09-28T02:17:53;97959.56;;;19.51;51.34
25638;BME280;13496;51.040;13.680;2022-09-28T02:22:55;97965.38;;;19.53;51.17
25638;BME280;13496;51.040;13.680;2022-09-28T02:28:02;97966.09;;;19.49;51.31
25638;BME280;13496;51.040;13.680;2022-09-28T02:33:19;97964.25;;;19.49;51.40
25638;BME280;13496;51.040;13.680;2022-09-28T02:38:22;97951.91;;;19.50;51.63
25638;BME280;13496;51.040;13.680;2022-09-28T03:05:05;97933.66;;;19.43;51.19
25638;BME280;13496;51.040;13.680;2022-09-28T03:10:40;97927.59;;;19.43;51.48
25638;BME280;13496;51.040;13.680;2022-09-28T03:15:39;97923.38;;;19.42;51.52
25638;BME280;13496;51.040;13.680;2022-09-28T03:20:42;97919.94;;;19.41;51.20
25638;BME280;13496;51.040;13.680;2022-09-28T03:25:44;97915.94;;;19.39;51.43
25638;BME280;13496;51.040;13.680;2022-09-28T03:30:46;97921.22;;;19.39;50.93
25638;BME280;13496;51.040;13.680;2022-09-28T03:35:49;97915.41;;;19.37;51.34
25638;BME280;13496;51.040;13.680;2022-09-28T03:40:56;97917.00;;;19.38;51.34
25638;BME280;13496;51.040;13.680;2022-09-28T03:46:00;97924.88;;;19.38;51.36
25638;BME280;13496;51.040;13.680;2022-09-28T03:51:05;97929.59;;;19.36;51.30
25638;BME280;13496;51.040;13.680;2022-09-28T03:56:11;97926.97;;;19.36;51.28
25638;BME280;13496;51.040;13.680;2022-09-28T04:01:14;97914.03;;;19.34;51.57
25638;BME280;13496;51.040;13.680;2022-09-28T04:06:17;97902.00;;;19.38;51.43
25638;BME280;13496;51.040;13.680;2022-09-28T04:11:19;97888.06;;;19.38;51.36
25638;BME280;13496;51.040;13.680;2022-09-28T04:16:21;97877.56;;;19.38;51.62
25638;BME280;13496;51.040;13.680;2022-09-28T04:21:33;97875.16;;;19.36;52.19
25638;BME280;13496;51.040;13.680;2022-09-28T04:26:41;97877.56;;;19.38;51.51
25638;BME280;13496;51.040;13.680;2022-09-28T04:31:46;97862.25;;;19.34;52.12
25638;BME280;13496;51.040;13.680;2022-09-28T04:36:49;97864.88;;;19.34;51.72
25638;BME280;13496;51.040;13.680;2022-09-28T04:41:51;97852.53;;;19.35;51.81
25638;BME280;13496;51.040;13.680;2022-09-28T04:46:54;97834.94;;;19.36;51.82
25638;BME280;13496;51.040;13.680;2022-09-28T04:52:05;97829.09;;;19.33;51.97
25638;BME280;13496;51.040;13.680;2022-09-28T04:57:09;97821.22;;;19.33;52.13
25638;BME280;13496;51.040;13.680;2022-09-28T05:02:12;97824.88;;;19.32;52.16
25638;BME280;13496;51.040;13.680;2022-09-28T05:07:47;97823.84;;;19.33;52.07
25638;BME280;13496;51.040;13.680;2022-09-28T05:12:49;97824.88;;;19.32;51.94
25638;BME280;13496;51.040;13.680;2022-09-28T05:17:51;97815.38;;;19.31;52.24
25638;BME280;13496;51.040;13.680;2022-09-28T05:23:12;97825.09;;;19.31;52.04
25638;BME280;13496;51.040;13.680;2022-09-28T05:28:25;97815.38;;;19.31;52.48
25638;BME280;13496;51.040;13.680;2022-09-28T05:33:54;97812.22;;;19.29;52.04
25638;BME280;13496;51.040;13.680;2022-09-28T05:38:56;97803.28;;;19.30;52.21
25638;BME280;13496;51.040;13.680;2022-09-28T05:43:58;97802.50;;;19.30;52.28
25638;BME280;13496;51.040;13.680;2022-09-28T05:49:00;97789.59;;;19.28;52.35
25638;BME280;13496;51.040;13.680;2022-09-28T05:54:02;97778.25;;;19.28;52.33
25638;BME280;13496;51.040;13.680;2022-09-28T05:59:04;97774.59;;;19.29;51.89
25638;BME280;13496;51.040;13.680;2022-09-28T06:04:06;97761.69;;;19.27;52.22
25638;BME280;13496;51.040;13.680;2022-09-28T06:09:09;97751.97;;;19.28;52.09
25638;BME280;13496;51.040;13.680;2022-09-28T06:14:22;97740.66;;;19.27;52.25
25638;BME280;13496;51.040;13.680;2022-09-28T06:19:24;97732.53;;;19.29;51.88
25638;BME280;13496;51.040;13.680;2022-09-28T06:24:40;97734.59;;;19.27;52.20
25638;BME280;13496;51.040;13.680;2022-09-28T06:29:42;97725.94;;;19.26;52.32
25638;BME280;13496;51.040;13.680;2022-09-28T06:34:44;97737.00;;;19.28;52.14
25638;BME280;13496;51.040;13.680;2022-09-28T06:39:46;97740.44;;;19.29;51.98
25638;BME280;13496;51.040;13.680;2022-09-28T06:44:49;97736.19;;;19.28;51.74
25638;BME280;13496;51.040;13.680;2022-09-28T06:50:16;97736.19;;;19.28;51.81
25638;BME280;13496;51.040;13.680;2022-09-28T06:55:44;97723.28;;;19.26;51.83
25638;BME280;13496;51.040;13.680;2022-09-28T07:00:50;97729.13;;;19.28;51.79
25638;BME280;13496;51.040;13.680;2022-09-28T07:05:53;97731.97;;;19.27;51.72
25638;BME280;13496;51.040;13.680;2022-09-28T07:11:14;97730.63;;;19.24;51.60
25638;BME280;13496;51.040;13.680;2022-09-28T07:16:19;97743.75;;;19.24;52.00
25638;BME280;13496;51.040;13.680;2022-09-28T07:21:21;97745.59;;;19.24;51.35
25638;BME280;13496;51.040;13.680;2022-09-28T07:26:23;97761.63;;;19.22;51.95
25638;BME280;13496;51.040;13.680;2022-09-28T07:31:37;97763.47;;;19.22;51.70
25638;BME280;13496;51.040;13.680;2022-09-28T07:37:02;97747.69;;;19.22;51.78
25638;BME280;13496;51.040;13.680;2022-09-28T07:42:04;97742.44;;;19.22;52.04
25638;BME280;13496;51.040;13.680;2022-09-28T07:47:06;97745.28;;;19.20;52.31
25638;BME280;13496;51.040;13.680;2022-09-28T07:52:28;97747.91;;;19.20;51.70
25638;BME280;13496;51.040;13.680;2022-09-28T07:57:43;97748.72;;;19.21;51.65
25638;BME280;13496;51.040;13.680;2022-09-28T08:03:05;97750.53;;;19.20;51.76
25638;BME280;13496;51.040;13.680;2022-09-28T08:08:08;97761.56;;;19.17;51.65
25638;BME280;13496;51.040;13.680;2022-09-28T08:13:10;97757.09;;;19.18;51.49
25638;BME280;13496;51.040;13.680;2022-09-28T08:18:31;97757.88;;;19.18;51.50
25638;BME280;13496;51.040;13.680;2022-09-28T08:23:33;97754.69;;;19.16;51.79
25638;BME280;13496;51.040;13.680;2022-09-28T08:28:35;97759.16;;;19.16;51.74
25638;BME280;13496;51.040;13.680;2022-09-28T08:33:53;97758.84;;;19.12;51.45
25638;BME280;13496;51.040;13.680;2022-09-28T08:39:15;97773.25;;;19.09;51.40
25638;BME280;13496;51.040;13.680;2022-09-28T08:44:43;97773.50;;;19.08;51.55
25638;BME280;13496;51.040;13.680;2022-09-28T08:50:06;97769.81;;;19.09;51.60
25638;BME280;13496;51.040;13.680;2022-09-28T08:55:35;97757.25;;;19.11;51.33
25638;BME280;13496;51.040;13.680;2022-09-28T09:00:49;97766.50;;;19.14;51.03
25638;BME280;13496;51.040;13.680;2022-09-28T09:05:59;97775.66;;;19.11;51.06
25638;BME280;13496;51.040;13.680;2022-09-28T09:17:03;97760.94;;;19.10;51.17
25638;BME280;13496;51.040;13.680;2022-09-28T09:38:55;97744.91;;;19.12;51.12
25638;BME280;13496;51.040;13.680;2022-09-28T09:44:28;97743.53;;;19.09;51.13
25638;BME280;13496;51.040;13.680;2022-09-28T09:50:44;97745.16;;;19.10;51.50
25638;BME280;13496;51.040;13.680;2022-09-28T09:55:26;97745.16;;;19.10;51.18
25638;BME280;13496;51.040;13.680;2022-09-28T10:00:51;97748.00;;;19.08;51.44
25638;BME280;13496;51.040;13.680;2022-09-28T10:06:37;97742.75;;;19.08;51.36
25638;BME280;13496;51.040;13.680;2022-09-28T10:11:45;97733.03;;;19.09;51.46
25638;BME280;13496;51.040;13.680;2022-09-28T10:16:53;97729.13;;;19.12;51.44
25638;BME280;13496;51.040;13.680;2022-09-28T10:22:20;97721.25;;;19.12;51.22
25638;BME280;13496;51.040;13.680;2022-09-28T10:27:26;97729.69;;;19.14;51.40
25638;BME280;13496;51.040;13.680;2022-09-28T10:32:37;97725.22;;;19.14;51.15
25638;BME280;13496;51.040;13.680;2022-09-28T10:37:53;97707.06;;;19.13;50.82
25638;BME280;13496;51.040;13.680;2022-09-28T10:43:55;97707.84;;;19.13;51.07
25638;BME280;13496;51.040;13.680;2022-09-28T10:49:16;97715.75;;;19.13;50.93
25638;BME280;13496;51.040;13.680;2022-09-28T10:54:26;97712.63;;;19.16;51.43
25638;BME280;13496;51.040;13.680;2022-09-28T11:04:53;97716.63;;;19.19;51.24
25638;BME280;13496;51.040;13.680;2022-09-28T11:09:56;97718.94;;;19.15;51.36
25638;BME280;13496;51.040;13.680;2022-09-28T11:15:01;97728.88;;;19.13;51.09
25638;BME280;13496;51.040;13.680;2022-09-28T11:25:26;97709.53;;;19.19;51.32
25638;BME280;13496;51.040;13.680;2022-09-28T11:30:48;97725.13;;;19.26;51.24
25638;BME280;13496;51.040;13.680;2022-09-28T11:47:36;97726.88;;;19.37;50.76
25638;BME280;13496;51.040;13.680;2022-09-28T11:57:59;97722.41;;;19.38;50.79
25638;BME280;13496;51.040;13.680;2022-09-28T12:03:07;97728.75;;;19.42;50.85
25638;BME280;13496;51.040;13.680;2022-09-28T12:08:18;97738.78;;;19.45;50.41
25638;BME280;13496;51.040;13.680;2022-09-28T12:13:46;97736.16;;;19.45;50.49
25638;BME280;13496;51.040;13.680;2022-09-28T12:24:26;97749.00;;;19.41;50.80
25638;BME280;13496;51.040;13.680;2022-09-28T12:29:56;97754.56;;;19.45;50.52
25638;BME280;13496;51.040;13.680;2022-09-28T12:35:10;97757.22;;;19.45;50.64
25638;BME280;13496;51.040;13.680;2022-09-28T12:40:23;97751.94;;;19.45;50.29
25638;BME280;13496;51.040;13.680;2022-09-28T12:51:42;97769.88;;;19.48;50.47
25638;BME280;13496;51.040;13.680;2022-09-28T13:02:38;97775.88;;;19.43;50.42
25638;BME280;13496;51.040;13.680;2022-09-28T13:13:22;97786.38;;;19.43;50.34
25638;BME280;13496;51.040;13.680;2022-09-28T13:23:58;97801.44;;;19.48;50.36
25638;BME280;13496;51.040;13.680;2022-09-28T13:29:10;97805.72;;;19.54;50.24
25638;BME280;13496;51.040;13.680;2022-09-28T13:34:17;97806.44;;;19.49;50.06
25638;BME280;13496;51.040;13.680;2022-09-28T13:55:54;97835.00;;;19.41;50.18
25638;BME280;13496;51.040;13.680;2022-09-28T14:01:08;97843.94;;;19.40;50.40
25638;BME280;13496;51.040;13.680;2022-09-28T14:16:34;97860.66;;;19.33;50.46
25638;BME280;13496;51.040;13.680;2022-09-28T14:32:31;97897.47;;;19.33;50.46
25638;BME280;13496;51.040;13.680;2022-09-28T14:37:38;97897.00;;;19.37;50.78
25638;BME280;13496;51.040;13.680;2022-09-28T14:53:49;97903.84;;;19.38;50.50
25638;BME280;13496;51.040;13.680;2022-09-28T14:58:57;97902.25;;;19.37;50.44
25638;BME280;13496;51.040;13.680;2022-09-28T15:04:01;97900.69;;;19.36;50.61
25638;BME280;13496;51.040;13.680;2022-09-28T15:09:04;97905.69;;;19.37;50.52
25638;BME280;13496;51.040;13.680;2022-09-28T15:14:06;97912.00;;;19.36;50.49
25638;BME280;13496;51.040;13.680;2022-09-28T15:24:29;97921.47;;;19.37;50.57
25638;BME280;13496;51.040;13.680;2022-09-28T15:29:32;97922.50;;;19.36;50.41
25638;BME280;13496;51.040;13.680;2022-09-28T15:34:35;97920.66;;;19.37;50.87
25638;BME280;13496;51.040;13.680;2022-09-28T15:39:53;97928.56;;;19.37;50.66
25638;BME280;13496;51.040;13.680;2022-09-28T15:50:21;97937.72;;;19.34;50.53
25638;BME280;13496;51.040;13.680;2022-09-28T15:55:26;97951.09;;;19.32;50.91
25638;BME280;13496;51.040;13.680;2022-09-28T16:00:30;97955.56;;;19.32;51.10
25638;BME280;13496;51.040;13.680;2022-09-28T16:05:45;97963.13;;;19.28;50.71
25638;BME280;13496;51.040;13.680;2022-09-28T16:16:22;97977.28;;;19.27;50.85
25638;BME280;13496;51.040;13.680;2022-09-28T16:21:27;97986.22;;;19.26;50.99
25638;BME280;13496;51.040;13.680;2022-09-28T16:26:34;97988.28;;;19.24;51.21
25638;BME280;13496;51.040;13.680;2022-09-28T16:31:37;98001.44;;;19.24;51.13
25638;BME280;13496;51.040;13.680;2022-09-28T16:36:46;97999.03;;;19.23;51.11
25638;BME280;13496;51.040;13.680;2022-09-28T16:41:54;98011.41;;;19.22;51.19
25638;BME280;13496;51.040;13.680;2022-09-28T16:47:00;98008.19;;;19.20;51.02
25638;BME280;13496;51.040;13.680;2022-09-28T16:52:01;98021.91;;;19.22;50.94
25638;BME280;13496;51.040;13.680;2022-09-28T16:57:05;98020.31;;;19.21;51.09
25638;BME280;13496;51.040;13.680;2022-09-28T17:02:14;98018.16;;;19.18;51.44
25638;BME280;13496;51.040;13.680;2022-09-28T17:07:17;98014.50;;;19.19;51.47
25638;BME280;13496;51.040;13.680;2022-09-28T17:12:22;98029.72;;;19.17;51.38
25638;BME280;13496;51.040;13.680;2022-09-28T17:17:25;98031.53;;;19.17;51.65
25638;BME280;13496;51.040;13.680;2022-09-28T17:22:30;98038.59;;;19.16;51.35
25638;BME280;13496;51.040;13.680;2022-09-28T17:27:32;98040.69;;;19.14;51.75
25638;BME280;13496;51.040;13.680;2022-09-28T17:32:36;98044.34;;;19.13;51.60
25638;BME280;13496;51.040;13.680;2022-09-28T17:37:37;98054.84;;;19.13;51.81
25638;BME280;13496;51.040;13.680;2022-09-28T17:42:41;98053.25;;;19.12;51.71
25638;BME280;13496;51.040;13.680;2022-09-28T17:47:43;98059.75;;;19.09;51.34
25638;BME280;13496;51.040;13.680;2022-09-28T17:52:49;98060.59;;;19.10;51.45
25638;BME280;13496;51.040;13.680;2022-09-28T17:57:53;98072.69;;;19.11;51.72
25638;BME280;13496;51.040;13.680;2022-09-28T18:02:56;98069.50;;;19.09;51.72
25638;BME280;13496;51.040;13.680;2022-09-28T18:07:58;98076.38;;;19.10;51.68
25638;BME280;13496;51.040;13.680;2022-09-28T18:12:59;98082.63;;;19.09;51.53
25638;BME280;13496;51.040;13.680;2022-09-28T18:18:01;98075.00;;;19.07;51.79
25638;BME280;13496;51.040;13.680;2022-09-28T18:23:04;98087.09;;;19.08;51.51
25638;BME280;13496;51.040;13.680;2022-09-28T18:28:06;98084.47;;;19.08;51.83
25638;BME280;13496;51.040;13.680;2022-09-28T18:33:09;98086.31;;;19.08;51.93
25638;BME280;13496;51.040;13.680;2022-09-28T18:38:11;98086.53;;;19.06;52.03
25638;BME280;13496;51.040;13.680;2022-09-28T18:43:13;98086.53;;;19.06;51.61
25638;BME280;13496;51.040;13.680;2022-09-28T18:48:15;98098.88;;;19.06;52.13
25638;BME280;13496;51.040;13.680;2022-09-28T18:53:17;98100.69;;;19.05;52.06
25638;BME280;13496;51.040;13.680;2022-09-28T18:58:20;98108.81;;;19.04;51.85
25638;BME280;13496;51.040;13.680;2022-09-28T19:03:22;98105.41;;;19.03;51.73
25638;BME280;13496;51.040;13.680;2022-09-28T19:08:23;98105.63;;;19.02;51.90
25638;BME280;13496;51.040;13.680;2022-09-28T19:13:27;98101.97;;;19.03;52.03
25638;BME280;13496;51.040;13.680;2022-09-28T19:18:29;98102.44;;;19.00;52.08
25638;BME280;13496;51.040;13.680;2022-09-28T19:23:32;98112.94;;;19.00;52.36
25638;BME280;13496;51.040;13.680;2022-09-28T19:28:34;98116.63;;;18.99;52.25
25638;BME280;13496;51.040;13.680;2022-09-28T19:33:37;98112.94;;;19.00;52.45
25638;BME280;13496;51.040;13.680;2022-09-28T19:38:40;98097.63;;;18.97;52.21
25638;BME280;13496;51.040;13.680;2022-09-28T19:43:42;98100.25;;;18.97;52.32
25638;BME280;13496;51.040;13.680;2022-09-28T19:48:44;98107.34;;;18.96;52.06
25638;BME280;13496;51.040;13.680;2022-09-28T19:53:47;98106.56;;;18.96;52.29
25638;BME280;13496;51.040;13.680;2022-09-28T19:58:49;98106.56;;;18.96;52.25
25638;BME280;13496;51.040;13.680;2022-09-28T20:03:50;98110.44;;;18.93;52.15
25638;BME280;13496;51.040;13.680;2022-09-28T20:08:54;98113.84;;;18.94;52.05
25638;BME280;13496;51.040;13.680;2022-09-28T20:13:58;98128.03;;;18.93;52.10
25638;BME280;13496;51.040;13.680;2022-09-28T20:19:00;98136.97;;;18.92;52.19
25638;BME280;13496;51.040;13.680;2022-09-28T20:24:04;98127.25;;;18.92;52.32
25638;BME280;13496;51.040;13.680;2022-09-28T20:29:06;98141.41;;;18.91;52.10
25638;BME280;13496;51.040;13.680;2022-09-28T20:34:10;98154.78;;;18.90;52.37
25638;BME280;13496;51.040;13.680;2022-09-28T20:39:12;98153.19;;;18.89;52.21
25638;BME280;13496;51.040;13.680;2022-09-28T20:44:14;98147.56;;;18.85;52.41
25638;BME280;13496;51.040;13.680;2022-09-28T20:49:16;98160.72;;;18.85;52.47
25638;BME280;13496;51.040;13.680;2022-09-28T20:54:19;98169.41;;;18.85;52.25
25638;BME280;13496;51.040;13.680;2022-09-28T20:59:21;98172.81;;;18.86;51.99
25638;BME280;13496;51.040;13.680;2022-09-28T21:04:26;98175.09;;;18.82;52.20
25638;BME280;13496;51.040;13.680;2022-09-28T21:09:28;98180.34;;;18.82;52.13
25638;BME280;13496;51.040;13.680;2022-09-28T21:14:32;98197.16;;;18.81;52.30
25638;BME280;13496;51.040;13.680;2022-09-28T21:19:34;98197.16;;;18.81;52.34
25638;BME280;13496;51.040;13.680;2022-09-28T21:24:36;98204.47;;;18.79;52.37
25638;BME280;13496;51.040;13.680;2022-09-28T21:29:38;98206.28;;;18.79;52.21
25638;BME280;13496;51.040;13.680;2022-09-28T21:34:39;98209.16;;;18.77;52.24
25638;BME280;13496;51.040;13.680;2022-09-28T21:39:41;98216.25;;;18.77;52.05
25638;BME280;13496;51.040;13.680;2022-09-28T21:44:43;98215.66;;;18.75;52.45
25638;BME280;13496;51.040;13.680;2022-09-28T21:49:44;98211.63;;;18.72;52.37
25638;BME280;13496;51.040;13.680;2022-09-28T21:54:46;98221.94;;;18.74;52.07
25638;BME280;13496;51.040;13.680;2022-09-28T21:59:48;98225.03;;;18.71;52.23
25638;BME280;13496;51.040;13.680;2022-09-28T22:04:50;98222.38;;;18.71;52.33
25638;BME280;13496;51.040;13.680;2022-09-28T22:09:52;98213.09;;;18.68;52.50
25638;BME280;13496;51.040;13.680;2022-09-28T22:14:54;98224.19;;;18.70;52.17
25638;BME280;13496;51.040;13.680;2022-09-28T22:19:55;98222.59;;;18.69;52.37
25638;BME280;13496;51.040;13.680;2022-09-28T22:24:57;98224.63;;;18.67;52.35
25638;BME280;13496;51.040;13.680;2022-09-28T22:29:59;98220.41;;;18.66;52.46
25638;BME280;13496;51.040;13.680;2022-09-28T22:35:00;98228.97;;;18.61;52.49
25638;BME280;13496;51.040;13.680;2022-09-28T22:40:02;98226.91;;;18.63;52.23
25638;BME280;13496;51.040;13.680;2022-09-28T22:45:05;98232.41;;;18.62;52.48
25638;BME280;13496;51.040;13.680;2022-09-28T22:50:07;98230.78;;;18.61;52.26
25638;BME280;13496;51.040;13.680;2022-09-28T22:55:08;98241.28;;;18.61;52.59
25638;BME280;13496;51.040;13.680;2022-09-28T23:00:10;98241.75;;;18.58;52.63
25638;BME280;13496;51.040;13.680;2022-09-28T23:05:12;98247.00;;;18.58;52.44
25638;BME280;13496;51.040;13.680;2022-09-28T23:10:14;98254.91;;;18.58;52.30
25638;BME280;13496;51.040;13.680;2022-09-28T23:15:16;98256.69;;;18.57;52.32
25638;BME280;13496;51.040;13.680;2022-09-28T23:20:21;98252.72;;;18.55;52.50
25638;BME280;13496;51.040;13.680;2022-09-28T23:25:24;98257.97;;;18.55;52.25
25638;BME280;13496;51.040;13.680;2022-09-28T23:30:25;98258.16;;;18.53;52.29
25638;BME280;13496;51.040;13.680;2022-09-28T23:35:27;98253.16;;;18.52;52.51
25638;BME280;13496;51.040;13.680;2022-09-28T23:40:29;98262.06;;;18.51;52.24
25638;BME280;13496;51.040;13.680;2022-09-28T23:45:31;98269.34;;;18.49;52.28
25638;BME280;13496;51.040;13.680;2022-09-28T23:50:32;98269.34;;;18.49;52.43
25638;BME280;13496;51.040;13.680;2022-09-28T23:55:34;98266.16;;;18.47;52.42
